Flight Track Log - Related Links

Times and Time Zones

All times are in EDT time to prevent confusion due to time zone crossing. See the EJA951 flight status page for this flight to view local times or setup timezone preferences in your user account.

Time Position Orientation Groundspeed Altitude Reporting Facility
EDT Latitude Longitude Course Direction KTS MPH feet Rate Location/Type
Thu 05:53:07 PM 40.8167 -74.1500 240° Southwest 219 252 1,800  Level New York TRACON
Thu 05:54:07 PM 40.8333 -74.2333 285° West 226 260 4,600 2,650 Climbing New York TRACON
Thu 05:55:07 PM 40.8500 -74.3167 285° West 255 293 7,100 1,888 Climbing New York TRACON
Thu 05:57:24 PM 40.8739 -74.5553 278° West 294 338 10,800 1,218 Climbing New York Center
Thu 05:58:00 PM 40.9530 -75.0463 240° Southwest  Level Estimated
Thu 05:58:24 PM 40.8369 -74.6686 247° West 319 367 11,100  Level New York Center
Thu 05:59:24 PM 40.7997 -74.7814 246° West 340 391 13,300 2,150 Climbing New York Center
Thu 06:00:24 PM 40.7644 -74.8972 248° West 340 391 15,400 1,800 Climbing New York Center
Thu 06:01:24 PM 40.7169 -75.0039 240° Southwest 345 397 16,900 950 Climbing New York Center
Thu 06:02:24 PM 40.6692 -75.1131 240° Southwest 363 418 17,300 700 Climbing New York Center
Thu 06:03:24 PM 40.6106 -75.2350 238° Southwest 391 450 18,300 1,050 Climbing New York Center
Thu 06:04:24 PM 40.5489 -75.3731 240° Southwest 397 457 19,400 1,100 Climbing New York Center
Thu 06:05:24 PM 40.4897 -75.5031 239° Southwest 402 463 20,500 1,200 Climbing New York Center
Thu 06:06:24 PM 40.4281 -75.6350 238° Southwest 419 482 21,800 1,300 Climbing New York Center
Thu 06:07:24 PM 40.3681 -75.7697 240° Southwest 424 488 23,100 1,250 Climbing New York Center
Thu 06:08:24 PM 40.3064 -75.9014 238° Southwest 424 488 24,300 1,150 Climbing New York Center
Thu 06:09:24 PM 40.2544 -76.0336 243° Southwest 436 502 25,400 1,050 Climbing New York Center
Thu 06:10:24 PM 40.2164 -76.1856 252° West 441 507 26,400 1,100 Climbing New York Center
Thu 06:11:24 PM 40.1861 -76.3464 256° West 452 520 27,600 1,150 Climbing New York Center
Thu 06:12:24 PM 40.1506 -76.5200 255° West 452 520 28,700 1,000 Climbing New York Center
Thu 06:13:24 PM 40.1194 -76.6858 256° West 460 529 29,600 1,000 Climbing New York Center
Thu 06:14:24 PM 40.0822 -76.8456 253° West 467 537 30,700 1,300 Climbing New York Center
Thu 06:15:24 PM 40.0422 -77.0103 252° West 472 543 32,200 1,350 Climbing New York Center
Thu 06:16:24 PM 40.0022 -77.1747 252° West 472 543 33,400 1,455 Climbing New York Center
Thu 06:18:42 PM 39.9889 -77.5306 267° West 453 521 37,000 1,650 Climbing Cleveland Center
Thu 06:19:44 PM 39.9917 -77.6883 271° West 445 512 38,900 1,258 Climbing Cleveland Center
Thu 06:20:46 PM 39.9942 -77.8792 271° West 438 504 39,600 532 Climbing Cleveland Center
Thu 06:21:48 PM 39.9967 -78.0408 271° West 444 511 40,000 194 Climbing Cleveland Center
Thu 06:22:50 PM 39.9983 -78.2083 271° West 457 526 40,000  Level Cleveland Center
Thu 06:23:52 PM 40.0011 -78.3828 271° West 468 539 40,000  Level Cleveland Center
Thu 06:24:54 PM 40.0022 -78.5567 271° West 477 549 40,000  Level Cleveland Center
Thu 06:25:56 PM 40.0042 -78.7292 271° West 477 549 40,000  Level Cleveland Center
Thu 06:26:58 PM 40.0064 -78.9025 271° West 475 547 40,000  Level Cleveland Center
Thu 06:28:00 PM 40.0075 -79.0831 271° West 483 556 40,000  Level Cleveland Center
Thu 06:29:03 PM 40.0089 -79.2936 271° West 483 556 40,000  Level Cleveland Center
Thu 06:30:05 PM 40.0092 -79.4683 270° West 482 555 40,000  Level Cleveland Center
Thu 06:31:07 PM 40.0103 -79.6464 271° West 489 563 40,000  Level Cleveland Center
Thu 06:32:09 PM 40.0092 -79.8242 270° West 490 564 40,000  Level Cleveland Center
Thu 06:33:11 PM 40.0100 -80.0036 270° West 491 565 40,000  Level Cleveland Center
Thu 06:34:13 PM 40.0086 -80.1789 269° West 484 557 40,000  Level Cleveland Center
Thu 06:35:15 PM 40.0078 -80.3575 270° West 488 562 40,000  Level Cleveland Center
Thu 06:36:17 PM 40.0064 -80.5756 270° West 497 572 40,000  Level Cleveland Center
Thu 06:37:19 PM 40.0036 -80.7569 269° West 498 573 40,000  Level Cleveland Center
Thu 06:38:05 PM 40.0036 -80.8775 270° West 501 577 40,000  Level Indianapolis Center
Thu 06:39:07 PM 40.0006 -81.0914 269° West 502 578 40,000  Level Indianapolis Center
Thu 06:40:09 PM 39.9981 -81.2761 269° West 505 581 40,000  Level Indianapolis Center
Thu 06:41:11 PM 39.9958 -81.4603 269° West 503 579 40,000  Level Indianapolis Center
Thu 06:42:13 PM 39.9917 -81.6478 268° West 508 585 40,000  Level Indianapolis Center
Thu 06:43:15 PM 39.9897 -81.8378 269° West 504 580 40,000  Level Indianapolis Center
Thu 06:44:17 PM 39.9850 -82.0208 268° West 507 583 40,000  Level Indianapolis Center
Thu 06:45:19 PM 39.9814 -82.2033 269° West 505 581 40,000  Level Indianapolis Center
Thu 06:46:21 PM 39.9775 -82.3850 268° West 505 581 40,000  Level Indianapolis Center
Thu 06:47:23 PM 39.9725 -82.5681 268° West 505 581 40,000  Level Indianapolis Center
Thu 06:48:25 PM 39.9669 -82.7867 268° West 505 581 40,000  Level Indianapolis Center
Thu 06:49:27 PM 39.9622 -82.9686 268° West 505 581 40,000  Level Indianapolis Center
Thu 06:50:29 PM 39.9569 -83.1489 268° West 502 578 40,000  Level Indianapolis Center
Thu 06:51:31 PM 39.9522 -83.3275 268° West 500 575 40,000  Level Indianapolis Center
Thu 06:52:33 PM 39.9453 -83.5172 267° West 501 577 40,000  Level Indianapolis Center
Thu 06:53:35 PM 39.9389 -83.7161 268° West 502 578 40,000  Level Indianapolis Center
Thu 06:54:37 PM 39.9317 -83.8919 267° West 496 571 40,000  Level Indianapolis Center
Thu 06:55:38 PM 39.9250 -84.0714 267° West 497 572 40,000  Level Indianapolis Center
Thu 06:56:40 PM 39.9183 -84.2517 267° West 499 574 40,000  Level Indianapolis Center
Thu 06:57:42 PM 39.9100 -84.4292 267° West 494 568 40,000  Level Indianapolis Center
Thu 06:58:44 PM 39.9019 -84.6439 267° West 496 571 40,000  Level Indianapolis Center
Thu 06:59:46 PM 39.8950 -84.8208 267° West 493 567 40,000  Level Indianapolis Center
Thu 07:00:47 PM 39.8858 -84.9825 266° West 491 565 40,000  Level Indianapolis Center
Thu 07:01:49 PM 39.8778 -85.1594 267° West 492 566 40,000  Level Indianapolis Center
Thu 07:02:51 PM 39.8672 -85.3703 266° West 489 563 40,000  Level Indianapolis Center
Thu 07:03:53 PM 39.8589 -85.5461 267° West 488 562 40,000  Level Indianapolis Center
Thu 07:04:54 PM 39.8506 -85.7214 267° West 488 562 40,000  Level Indianapolis Center
Thu 07:05:56 PM 39.8411 -85.8967 266° West 489 563 40,000  Level Indianapolis Center
Thu 07:06:58 PM 39.8319 -86.0711 266° West 489 563 40,000  Level Indianapolis Center
Thu 07:08:00 PM 39.8194 -86.2719 265° West 493 567 40,000  Level Indianapolis Center
Thu 07:09:01 PM 39.7997 -86.4478 262° West 494 568 40,000  Level Indianapolis Center
Thu 07:10:03 PM 39.7631 -86.6156 254° West 488 562 40,000  Level Indianapolis Center
Thu 07:11:05 PM 39.7267 -86.7814 254° West 486 559 40,000  Level Indianapolis Center
Thu 07:12:06 PM 39.6903 -86.9478 254° West 483 556 40,000  Level Indianapolis Center
Thu 07:13:08 PM 39.6464 -87.1478 254° West 483 556 40,000  Level Indianapolis Center
Thu 07:14:10 PM 39.6108 -87.3139 255° West 481 554 40,000  Level Indianapolis Center
Thu 07:15:12 PM 39.5725 -87.4806 253° West 482 555 40,000  Level Indianapolis Center
Thu 07:16:13 PM 39.5364 -87.6458 254° West 480 552 40,000  Level Indianapolis Center
Thu 07:17:15 PM 39.4983 -87.8111 253° West 481 554 40,000  Level Indianapolis Center
Thu 07:18:17 PM 39.4614 -87.9775 254° West 483 556 40,000  Level Indianapolis Center
Thu 07:19:17 PM 39.4217 -88.1531 254° West 483 556 40,000  Level Kansas City Center
Thu 07:20:17 PM 39.3833 -88.3200 254° West 483 556 40,000  Level Kansas City Center
Thu 07:21:18 PM 39.3436 -88.4875 253° West 484 557 40,000  Level Kansas City Center
Thu 07:22:22 PM 39.3042 -88.6528 253° West 478 550 40,000  Level Kansas City Center
Thu 07:23:23 PM 39.2664 -88.8169 253° West 479 551 40,000  Level Kansas City Center
Thu 07:24:24 PM 39.2242 -88.9764 251° West 476 548 40,000  Level Kansas City Center
Thu 07:25:25 PM 39.1519 -89.1608 243° Southwest 475 547 40,000  Level Kansas City Center
Thu 07:26:29 PM 39.0925 -89.3147 244° Southwest 481 554 40,000  Level Kansas City Center
Thu 07:27:30 PM 39.0272 -89.4786 243° Southwest 480 552 40,000  Level Kansas City Center
Thu 07:28:32 PM 38.9678 -89.6306 243° Southwest 477 549 40,000  Level Kansas City Center
Thu 07:29:33 PM 38.9125 -89.7686 243° Southwest 476 548 40,000 48 Level Kansas City Center
Thu 07:30:37 PM 38.8514 -89.9169 242° Southwest 473 544 40,100 336 Climbing Kansas City Center
Thu 07:31:38 PM 38.7828 -90.0903 243° Southwest 465 535 40,700 545 Climbing Kansas City Center
Thu 07:32:38 PM 38.7231 -90.2353 242° Southwest 462 532 41,200 496 Climbing Kansas City Center
Thu 07:33:39 PM 38.6633 -90.3825 243° Southwest 463 533 41,700 484 Climbing Kansas City Center
Thu 07:34:42 PM 38.6042 -90.5267 242° Southwest 461 531 42,200 484 Climbing Kansas City Center
Thu 07:35:43 PM 38.5450 -90.6689 242° Southwest 457 526 42,700 387 Climbing Kansas City Center
Thu 07:36:46 PM 38.4794 -90.8275 242° Southwest 461 531 43,000 144 Climbing Kansas City Center
Thu 07:37:48 PM 38.4203 -90.9703 242° Southwest 459 528 43,000  Level Kansas City Center
Thu 07:38:48 PM 38.3614 -91.1111 242° Southwest 454 522 43,000  Level Kansas City Center
Thu 07:39:51 PM 38.3022 -91.2533 242° Southwest 453 521 43,000  Level Kansas City Center
Thu 07:40:52 PM 38.2367 -91.4064 241° Southwest 444 511 43,000  Level Kansas City Center
Thu 07:41:52 PM 38.1781 -91.5461 242° Southwest 445 512 43,000  Level Kansas City Center
Thu 07:42:55 PM 38.1192 -91.6847 242° Southwest 444 511 43,000  Level Kansas City Center
Thu 07:43:55 PM 38.0600 -91.8253 242° Southwest 448 516 43,000  Level Kansas City Center
Thu 07:44:59 PM 38.0019 -91.9619 242° Southwest 442 509 43,000  Level Kansas City Center
Thu 07:46:01 PM 37.9389 -92.1089 241° Southwest 446 513 43,000  Level Kansas City Center
Thu 07:47:01 PM 37.8778 -92.2458 241° Southwest 450 518 43,000  Level Kansas City Center
Thu 07:48:04 PM 37.8156 -92.3889 241° Southwest 462 532 43,000  Level Kansas City Center
Thu 07:49:05 PM 37.7583 -92.5294 243° Southwest 458 527 43,000  Level Kansas City Center
Thu 07:50:06 PM 37.6956 -92.6675 240° Southwest 454 522 43,000  Level Kansas City Center
Thu 07:51:10 PM 37.6197 -92.8367 241° Southwest 449 517 43,000  Level Kansas City Center
Thu 07:52:11 PM 37.5572 -92.9772 241° Southwest 453 521 43,000  Level Kansas City Center
Thu 07:53:11 PM 37.4947 -93.1194 241° Southwest 461 531 43,000  Level Kansas City Center
Thu 07:54:12 PM 37.4336 -93.2614 242° Southwest 460 529 43,000  Level Kansas City Center
Thu 07:55:14 PM 37.3697 -93.4022 240° Southwest 462 532 43,000  Level Kansas City Center
Thu 07:56:15 PM 37.3075 -93.5419 241° Southwest 460 529 43,000  Level Kansas City Center
Thu 07:57:19 PM 37.2447 -93.6833 241° Southwest 461 531 43,000  Level Kansas City Center
Thu 07:58:20 PM 37.1806 -93.8236 240° Southwest 464 534 43,000  Level Kansas City Center
Thu 07:59:21 PM 37.1122 -93.9733 240° Southwest 460 529 43,000  Level Kansas City Center
Thu 08:00:24 PM 37.0497 -94.1117 241° Southwest 458 527 43,000  Level Kansas City Center
Thu 08:01:25 PM 36.9867 -94.2486 240° Southwest 455 524 43,000  Level Kansas City Center
Thu 08:02:25 PM 36.9239 -94.3839 240° Southwest 452 520 43,000  Level Kansas City Center
Thu 08:03:26 PM 36.8525 -94.5472 241° Southwest 448 516 43,000  Level Kansas City Center
Thu 08:04:30 PM 36.8211 -94.6908 255° West 436 502 43,000  Level Kansas City Center
Thu 08:05:31 PM 36.8075 -94.8406 264° West 433 498 43,000  Level Kansas City Center
Thu 08:06:31 PM 36.8131 -94.9869 273° West 427 491 43,000  Level Kansas City Center
Thu 08:07:35 PM 36.8411 -95.1294 284° West 425 489 43,000  Level Kansas City Center
Thu 08:08:36 PM 36.8800 -95.2694 289° West 429 494 43,000  Level Kansas City Center
Thu 08:09:37 PM 36.9178 -95.4083 289° West 427 491 43,000  Level Kansas City Center
Thu 08:10:38 PM 36.9631 -95.5775 289° West 430 495 43,000  Level Kansas City Center
Thu 08:11:39 PM 37.0022 -95.7172 289° West 429 494 43,000  Level Kansas City Center
Thu 08:12:41 PM 37.0383 -95.8592 288° West 430 495 43,000  Level Kansas City Center
Thu 08:13:42 PM 37.0772 -96.0008 289° West 431 496 43,000 336 Level Kansas City Center
Thu 08:14:46 PM 37.1142 -96.1425 288° West 430 495 43,700 667 Climbing Kansas City Center
Thu 08:15:48 PM 37.1511 -96.2819 288° West 425 489 44,400 639 Climbing Kansas City Center
Thu 08:16:48 PM 37.1869 -96.4203 288° West 421 484 45,000 290 Climbing Kansas City Center
Thu 08:17:52 PM 37.2319 -96.5839 289° West 421 484 45,000  Level Kansas City Center
Thu 08:18:52 PM 37.2686 -96.7244 288° West 422 486 45,000  Level Kansas City Center
Thu 08:19:52 PM 37.3061 -96.8689 288° West 427 491 45,000  Level Kansas City Center
Thu 08:20:56 PM 37.3431 -97.0142 288° West 432 497 45,000  Level Kansas City Center
Thu 08:21:55 PM 37.3789 -97.1575 288° West 432 497 45,000  Level Kansas City Center
Thu 08:22:59 PM 37.4147 -97.3006 288° West 429 494 45,000  Level Kansas City Center
Thu 08:24:00 PM 37.4500 -97.4431 287° West 427 491 45,000  Level Kansas City Center
Thu 08:25:02 PM 37.4864 -97.5850 288° West 425 489 45,000  Level Kansas City Center
Thu 08:26:03 PM 37.5219 -97.7289 287° West 427 491 45,000  Level Kansas City Center
Thu 08:27:03 PM 37.5656 -97.9039 288° West 430 495 45,000  Level Kansas City Center
Thu 08:28:06 PM 37.6006 -98.0508 287° West 431 496 45,000  Level Kansas City Center
Thu 08:29:08 PM 37.6375 -98.1972 288° West 432 497 45,000  Level Kansas City Center
Thu 08:30:08 PM 37.6736 -98.3425 287° West 430 495 45,000  Level Kansas City Center
Thu 08:31:09 PM 37.7089 -98.4878 287° West 429 494 45,000  Level Kansas City Center
Thu 08:32:11 PM 37.7439 -98.6303 287° West 425 489 45,000  Level Kansas City Center
Thu 08:33:14 PM 37.7772 -98.7728 287° West 421 484 45,000  Level Kansas City Center
Thu 08:34:16 PM 37.8111 -98.9142 287° West 418 481 45,000  Level Kansas City Center
Thu 08:35:15 PM 37.8447 -99.0575 287° West 421 484 45,000  Level Kansas City Center
Thu 08:36:18 PM 37.8783 -99.2014 287° West 423 487 45,000  Level Kansas City Center
Thu 08:37:20 PM 37.9144 -99.3453 288° West 426 490 45,000  Level Kansas City Center
Thu 08:38:21 PM 37.9486 -99.4969 286° West 425 489 45,000  Level Kansas City Center
Thu 08:39:21 PM 37.9858 -99.6561 287° West 424 488 45,000  Level Kansas City Center
Thu 08:40:25 PM 38.0175 -99.7956 286° West 427 491 45,000  Level Kansas City Center
Thu 08:41:26 PM 38.0553 -99.9583 286° West 432 497 45,000  Level Kansas City Center
Thu 08:42:27 PM 38.0878 -100.0992 286° West 434 499 45,000  Level Kansas City Center
Thu 08:43:28 PM 38.1244 -100.2644 286° West 435 501 45,000  Level Kansas City Center
Thu 08:44:31 PM 38.1558 -100.4058 286° West 436 502 45,000  Level Kansas City Center
Thu 08:45:32 PM 38.1867 -100.5464 286° West 435 501 45,000  Level Kansas City Center
Thu 08:46:33 PM 38.2236 -100.7119 286° West 436 502 45,000  Level Kansas City Center
Thu 08:47:33 PM 38.2550 -100.8567 285° West 443 510 45,000  Level Kansas City Center
Thu 08:48:37 PM 38.2908 -101.0233 285° West 442 509 45,000  Level Kansas City Center
Thu 08:49:37 PM 38.3214 -101.1664 285° West 440 506 45,000  Level Kansas City Center
Thu 08:50:39 PM 38.3572 -101.3317 286° West 436 502 45,000  Level Kansas City Center
Thu 08:51:41 PM 38.4053 -101.4669 294° West 440 506 45,000  Level Kansas City Center
Thu 08:52:41 PM 38.4617 -101.5997 299° West 444 511 45,000  Level Kansas City Center
Thu 08:54:06 PM 38.5475 -101.8000 299° West 450 518 45,000  Level Denver Center
Thu 08:55:07 PM 38.6133 -101.9553 299° West 448 516 45,000  Level Denver Center
Thu 08:56:09 PM 38.6708 -102.0900 299° West 450 518 45,000  Level Denver Center
Thu 08:57:11 PM 38.7369 -102.2481 298° West 451 519 45,000  Level Denver Center
Thu 08:58:12 PM 38.7931 -102.3836 298° West 451 519 45,000  Level Denver Center
Thu 08:59:14 PM 38.8592 -102.5414 298° West 451 519 45,000  Level Denver Center
Thu 09:00:15 PM 38.9144 -102.6775 298° West 450 518 45,000  Level Denver Center
Thu 09:01:17 PM 38.9750 -102.8264 298° West 451 519 45,000  Level Denver Center
Thu 09:02:18 PM 39.0339 -102.9692 298° West 453 521 45,000  Level Denver Center
Thu 09:03:20 PM 39.0925 -103.1150 297° West 459 528 45,000  Level Denver Center
Thu 09:04:21 PM 39.1525 -103.2603 298° West 461 531 45,000  Level Denver Center
Thu 09:05:35 PM 39.2106 -103.4072 297° West 461 531 45,000  Level Denver Center
Thu 09:06:36 PM 39.2822 -103.5836 298° West 461 531 45,000  Level Denver Center
Thu 09:07:38 PM 39.3519 -103.7594 297° West 460 529 45,000  Level Denver Center
Thu 09:08:39 PM 39.4117 -103.9078 298° West 467 537 45,000 -98 Level Denver Center
Thu 09:09:41 PM 39.4694 -104.0558 297° West 463 533 44,800 -871 Descending Denver Center
Thu 09:10:43 PM 39.5278 -104.2033 297° West 462 532 43,200 -1,561 Descending Denver Center
Thu 09:11:44 PM 39.5844 -104.3500 297° West 459 528 41,600 -1,659 Descending Denver Center
Thu 09:12:46 PM 39.6419 -104.5014 296° West 434 499 39,800 -1,659 Descending Denver Center
Thu 09:13:47 PM 39.6844 -104.6428 291° West 428 493 38,200 -1,659 Descending Denver Center
Thu 09:14:49 PM 39.6703 -104.8089 264° West 429 494 36,400 -1,645 Descending Denver Center
Thu 09:15:51 PM 39.6553 -104.9653 263° West 435 501 34,800 -1,561 Descending Denver Center
Thu 09:16:52 PM 39.6386 -105.1194 262° West 433 498 33,200 -1,463 Descending Denver Center
Thu 09:17:54 PM 39.6239 -105.2569 262° West 426 490 31,800 -1,659 Descending Denver Center
Thu 09:18:55 PM 39.6019 -105.4486 262° West 455 524 29,800 -1,756 Descending Denver Center
Thu 09:19:57 PM 39.5867 -105.6114 263° West 454 522 28,200 -1,597 Descending Denver Center
Thu 09:20:59 PM 39.5669 -105.7725 261° West 448 516 26,500 -1,756 Descending Denver Center
Thu 09:22:00 PM 39.5525 -105.9247 263° West 429 494 24,600 -1,854 Descending Denver Center
Thu 09:23:02 PM 39.5347 -106.0742 261° West 422 486 22,700 -2,000 Descending Denver Center
Thu 09:24:03 PM 39.5169 -106.2331 262° West 407 468 20,500 -1,317 Descending Denver Center
Thu 09:25:05 PM 39.5008 -106.3781 262° West 406 467 20,000 -293 Descending Denver Center
Thu 09:26:06 PM 39.4828 -106.5294 261° West 412 474 19,900 -634 Descending Denver Center
Thu 09:27:08 PM 39.4664 -106.6661 261° West 404 465 18,700 -1,500 Descending Denver Center
Thu 09:28:10 PM 39.4478 -106.8228 261° West 395 455 16,800 -1,854 Descending Denver Center
Thu 09:29:11 PM 39.4558 -106.9425 275° West 392 451 14,900 -1,475 Descending Denver Center
Thu 09:30:12 PM 39.4894 -107.0403 294° West 369 425 13,800 -489 Descending Denver Center
Thu 09:31:26 PM 39.5306 -107.1586 294° West 295 339 13,800 -574 Level Denver Center
Thu 09:32:28 PM 39.5339 -107.2931 272° West 271 312 12,500 -1,210 Descending Denver Center
Thu 09:33:30 PM 39.5336 -107.3808 270° West 261 300 11,300 -1,171 Descending Denver Center
Thu 09:34:31 PM 39.5314 -107.4575 268° West 229 264 10,100 -1,220 Descending Denver Center
Thu 09:35:33 PM 39.5308 -107.5308 269° West 218 251 8,800 -1,210 Descending Denver Center
Thu 09:36:35 PM 39.5294 -107.5992 269° West 185 213 7,600 -1,073 Descending Denver Center
Thu 09:37:36 PM 39.5281 -107.6533 268° West 166 191 6,600 -927 Descending Denver Center
Thu 09:38:38 PM 39.5269 -107.7050 268° West 155 178 5,700 -585 Descending Denver Center
Thu 09:39:39 PM 39.5267 -107.7361 269° West 111 128 5,400 -295 Descending Denver Center

Login

Don't have an account? Register now (free) for customized features, flight alerts, and more!